NCAR-RAP Real-Time Weather Data

Output produced by METARs form (10 April 2020  07:24 UTC)
found at http://weather.rap.ucar.edu/surface/
 
KMSL 100653Z AUTO 35010G17KT 10SM BKN120 14/M01 A2992 RMK AO2 SLP129 T01441006
KMSL 100553Z AUTO 34008G14KT 10SM CLR 16/04 A2991 RMK AO2 SLP124 T01560039 10194 20150 402280150 53004
KMSL 100453Z AUTO 31004KT 10SM CLR 15/07 A2990 RMK AO2 SLP122 T01500067
KMSL 100353Z AUTO 00000KT 10SM CLR 16/06 A2990 RMK AO2 SLP122 T01560061
KMSL 100253Z AUTO 31005KT 10SM SCT120 17/03 A2990 RMK AO2 SLP120 T01670033 53016
KMSL 100153Z AUTO 32004KT 10SM FEW120 16/04 A2989 RMK AO2 SLP116 T01610039
KMSL 100053Z AUTO 32005KT 10SM CLR 18/01 A2986 RMK AO2 SLP107 T01830011
KMSL 092353Z AUTO 31005KT 10SM CLR 19/04 A2985 RMK AO2 SLP104 T01890044 10228 20189 58001
KMSL 092253Z AUTO 30011KT 10SM CLR 20/03 A2986 RMK AO2 SLP108 T02000033
KMSL 092153Z AUTO 29010G20KT 10SM CLR 21/03 A2986 RMK AO2 SLP106 T02060028
KMSL 092053Z AUTO 30009KT 10SM CLR 23/04 A2985 RMK AO2 SLP104 T02280044 58020
KMSL 091953Z AUTO 32006KT 10SM CLR 22/04 A2988 RMK AO2 SLP112 T02220039
KMSL 091853Z AUTO 34008KT 10SM CLR 22/06 A2990 RMK AO2 SLP119 T02220061
KMSL 091753Z AUTO 34008KT 10SM CLR 22/03 A2991 RMK AO2 SLP123 T02170033 10217 20172 58007
KMSL 091653Z AUTO 04006KT 10SM CLR 20/04 A2993 RMK AO2 SLP130 T02000044
KMSL 091553Z AUTO 36008G20KT 10SM CLR 19/03 A2995 RMK AO2 SLP138 T01940033
KMSL 091453Z AUTO 36008G17KT 10SM CLR 18/09 A2993 RMK AO2 SLP131 T01830094 51029
KMSL 091353Z AUTO 35011G19KT 10SM CLR 17/12 A2990 RMK AO2 SLP121 T01720117
KMSL 091253Z AUTO 36007KT 10SM CLR 17/14 A2988 RMK AO2 SLP114 T01720139
KMSL 091231Z AUTO 34009KT 10SM SCT016 17/14 A2987 RMK AO2 T01720144
KMSL 091212Z AUTO 35012G18KT 10SM BKN016 BKN120 17/14 A2986 RMK AO2 T01720144
KMSL 091153Z AUTO 35011KT 10SM FEW015 BKN120 17/15 A2984 RMK AO2 SLP100 60049 70062 T01720150 10217 20172 51045
KMSL 091053Z AUTO 33004KT 10SM CLR 17/16 A2981 RMK AO2 SLP087 T01720156
KMSL 091020Z AUTO 34008KT 10SM FEW006 FEW080 SCT100 17/16 A2978 RMK AO2 T01720161
KMSL 090953Z AUTO 26006KT 10SM CLR 17/16 A2976 RMK AO2 PRESRR SLP071 T01720156
KMSL 090853Z AUTO 17004KT 10SM CLR 18/16 A2971 RMK AO2 RAE32 SLP054 P0004 60049 T01830161 58019